createdAt,value
2019-02-17T00:00:34.167Z,6.87
2019-02-17T00:03:01.045Z,6.10
2019-02-17T00:05:28.219Z,6.87
2019-02-17T00:07:55.005Z,6.60
2019-02-17T00:10:21.955Z,6.63
2019-02-17T00:12:48.746Z,7.40
2019-02-17T00:15:16.253Z,7.40
2019-02-17T00:17:46.379Z,6.97
2019-02-17T00:20:13.311Z,6.80
2019-02-17T00:22:40.059Z,6.53
2019-02-17T00:25:07.123Z,6.80
2019-02-17T00:27:34.192Z,6.40
2019-02-17T00:30:01.107Z,6.23
2019-02-17T00:32:27.913Z,6.00
2019-02-17T00:34:54.780Z,6.53
2019-02-17T00:37:21.684Z,6.17
2019-02-17T00:39:48.558Z,6.30
2019-02-17T00:42:15.310Z,6.60
2019-02-17T00:44:42.307Z,6.97
2019-02-17T00:47:09.234Z,6.80
2019-02-17T00:49:36.228Z,6.93
2019-02-17T00:52:02.980Z,6.67
2019-02-17T00:54:30.211Z,6.53
2019-02-17T00:56:56.948Z,6.73
2019-02-17T00:59:24.861Z,6.87
2019-02-17T01:01:51.588Z,7.00
2019-02-17T01:04:18.334Z,7.30
2019-02-17T01:06:48.175Z,7.70
2019-02-17T01:09:14.883Z,7.20
2019-02-17T01:11:41.638Z,7.53
2019-02-17T01:14:09.981Z,7.00
2019-02-17T01:16:36.702Z,7.67
2019-02-17T01:19:03.517Z,7.10
2019-02-17T01:21:30.222Z,7.10
2019-02-17T01:23:58.860Z,6.57
2019-02-17T01:26:25.604Z,7.23
2019-02-17T01:28:52.332Z,6.97
2019-02-17T01:31:19.023Z,7.47
2019-02-17T01:33:45.822Z,7.20
2019-02-17T01:36:15.051Z,6.80
2019-02-17T01:38:41.876Z,5.90
2019-02-17T01:41:08.639Z,6.10
2019-02-17T01:43:35.545Z,6.17
2019-02-17T01:46:02.918Z,6.47
2019-02-17T01:48:29.919Z,5.83
2019-02-17T01:50:59.742Z,7.30
2019-02-17T01:53:26.460Z,7.33
2019-02-17T01:55:53.240Z,7.33
2019-02-17T01:58:19.975Z,7.80
2019-02-17T02:00:46.742Z,7.77
2019-02-17T02:03:13.715Z,7.47
2019-02-17T02:05:40.491Z,7.13
2019-02-17T02:08:07.310Z,7.47
2019-02-17T02:10:34.305Z,7.53
2019-02-17T02:13:01.081Z,7.33
2019-02-17T02:15:27.816Z,7.03
2019-02-17T02:17:54.601Z,6.10
2019-02-17T02:20:21.455Z,6.83
2019-02-17T02:22:48.422Z,7.00
2019-02-17T02:25:15.187Z,7.10
2019-02-17T02:27:41.942Z,6.20
2019-02-17T02:30:09.988Z,7.03
2019-02-17T02:32:37.051Z,6.67
2019-02-17T02:35:04.606Z,6.60
2019-02-17T02:37:31.415Z,6.83
2019-02-17T02:39:58.175Z,7.00
2019-02-17T02:42:24.927Z,6.50
2019-02-17T02:44:51.664Z,7.53
2019-02-17T02:47:18.686Z,7.97
2019-02-17T02:49:49.209Z,7.83
2019-02-17T02:52:17.714Z,7.60
2019-02-17T02:54:45.379Z,7.50
2019-02-17T02:57:12.177Z,7.23
2019-02-17T02:59:39.037Z,6.90
2019-02-17T03:02:05.888Z,7.90
2019-02-17T03:04:32.645Z,7.53
2019-02-17T03:07:02.372Z,6.93
2019-02-17T03:09:29.240Z,7.20
2019-02-17T03:11:55.986Z,6.73
2019-02-17T03:14:22.693Z,6.90
2019-02-17T03:16:49.767Z,6.70
2019-02-17T03:19:16.513Z,6.77
2019-02-17T03:21:43.397Z,5.93
2019-02-17T03:24:10.742Z,6.70
2019-02-17T03:26:37.491Z,6.20
2019-02-17T03:29:04.440Z,6.10
2019-02-17T03:31:31.283Z,6.40
2019-02-17T03:33:58.065Z,6.97
2019-02-17T03:36:24.798Z,6.37
2019-02-17T03:38:51.664Z,6.00
2019-02-17T03:41:18.434Z,6.20
2019-02-17T03:43:48.356Z,5.97
2019-02-17T03:46:15.129Z,5.47
2019-02-17T03:48:41.878Z,6.00
2019-02-17T03:51:08.665Z,6.47
2019-02-17T03:53:35.423Z,6.87
2019-02-17T03:56:02.164Z,6.03
2019-02-17T03:58:29.188Z,6.30
2019-02-17T04:00:56.170Z,6.30
2019-02-17T04:03:22.899Z,5.83
2019-02-17T04:05:49.598Z,5.80
2019-02-17T04:08:16.404Z,6.23
2019-02-17T04:10:43.265Z,6.20
2019-02-17T04:13:10.110Z,5.80
2019-02-17T04:15:36.991Z,6.10
2019-02-17T04:18:04.348Z,6.30
2019-02-17T04:20:31.117Z,5.67
2019-02-17T04:22:57.858Z,5.77
2019-02-17T04:25:24.598Z,5.40
2019-02-17T04:27:51.342Z,5.70
2019-02-17T04:30:28.895Z,5.10
2019-02-17T04:32:49.522Z,5.60
2019-02-17T04:35:16.255Z,5.47
2019-02-17T04:37:42.997Z,5.90
2019-02-17T04:40:09.750Z,5.87
2019-02-17T04:42:36.712Z,5.77
2019-02-17T04:45:03.674Z,6.03
2019-02-17T04:47:33.163Z,5.47
2019-02-17T04:49:59.941Z,5.97
2019-02-17T04:52:26.709Z,6.90
2019-02-17T04:54:53.432Z,6.33
2019-02-17T04:57:20.573Z,6.53
2019-02-17T04:59:47.294Z,5.17
2019-02-17T05:02:14.080Z,5.50
2019-02-17T05:04:40.822Z,4.77
2019-02-17T05:07:07.842Z,5.60
2019-02-17T05:09:34.594Z,5.43
2019-02-17T05:12:01.355Z,5.50
2019-02-17T05:14:28.679Z,6.10
2019-02-17T05:16:55.396Z,5.80
2019-02-17T05:19:22.134Z,5.80
2019-02-17T05:21:50.303Z,5.90
2019-02-17T05:24:17.075Z,5.27
2019-02-17T05:26:43.808Z,6.40
2019-02-17T05:29:10.558Z,6.00
2019-02-17T05:31:37.284Z,6.60
2019-02-17T05:34:04.014Z,6.30
2019-02-17T05:36:31.570Z,6.17
2019-02-17T05:38:58.308Z,6.87
2019-02-17T05:41:25.104Z,6.30
2019-02-17T05:43:51.887Z,6.53
2019-02-17T05:46:18.612Z,6.43
2019-02-17T05:48:45.480Z,6.10
2019-02-17T05:51:12.248Z,6.70
2019-02-17T05:53:39.187Z,6.63
2019-02-17T05:56:05.903Z,5.93
2019-02-17T05:58:32.721Z,6.33
2019-02-17T06:01:03.714Z,6.67
2019-02-17T06:03:28.248Z,7.60
2019-02-17T06:05:55.022Z,6.47
2019-02-17T06:08:21.751Z,7.10
2019-02-17T06:10:48.473Z,6.90
2019-02-17T06:13:15.240Z,6.73
2019-02-17T06:15:42.136Z,6.00
2019-02-17T06:18:10.070Z,5.80
2019-02-17T06:20:36.832Z,5.27
2019-02-17T06:23:03.690Z,5.53
2019-02-17T06:25:30.601Z,5.30
2019-02-17T06:27:57.470Z,5.37
2019-02-17T06:30:24.491Z,5.70
2019-02-17T06:32:51.217Z,5.10
2019-02-17T06:35:20.029Z,5.37
2019-02-17T06:37:47.026Z,5.83
2019-02-17T06:40:13.832Z,5.33
2019-02-17T06:42:40.704Z,5.60
2019-02-17T06:45:09.773Z,5.40
2019-02-17T06:47:36.681Z,5.37
2019-02-17T06:50:03.682Z,6.23
2019-02-17T06:52:30.581Z,10.47
2019-02-17T06:55:19.746Z,6.20
2019-02-17T06:57:47.221Z,6.27
2019-02-17T07:00:39.604Z,6.23
2019-02-17T07:03:06.558Z,6.10
2019-02-17T07:05:59.260Z,6.37
2019-02-17T07:08:28.207Z,6.23
2019-02-17T07:10:54.852Z,5.50
2019-02-17T07:13:21.697Z,5.90
2019-02-17T07:15:48.474Z,6.30
2019-02-17T07:18:15.192Z,5.90
2019-02-17T07:20:43.949Z,6.40
2019-02-17T07:23:10.711Z,5.53
2019-02-17T07:25:37.669Z,6.33
2019-02-17T07:28:04.715Z,6.10
2019-02-17T07:30:31.685Z,5.30
2019-02-17T07:33:00.341Z,6.03
2019-02-17T07:35:27.124Z,5.83
2019-02-17T07:37:53.964Z,6.00
2019-02-17T07:40:20.769Z,5.90
2019-02-17T07:42:47.843Z,5.40
2019-02-17T07:45:14.586Z,5.77
2019-02-17T07:47:42.504Z,5.50
2019-02-17T07:50:09.281Z,5.57
2019-02-17T07:52:37.881Z,5.57
2019-02-17T07:55:07.369Z,5.40
2019-02-17T07:57:34.351Z,6.20
2019-02-17T08:00:01.063Z,5.53
2019-02-17T08:02:27.802Z,5.00
2019-02-17T08:04:54.629Z,5.17
2019-02-17T08:07:21.455Z,5.60
2019-02-17T08:09:48.419Z,5.67
2019-02-17T08:12:15.231Z,5.67
2019-02-17T08:14:42.231Z,5.40
2019-02-17T08:17:10.874Z,4.93
2019-02-17T08:19:37.767Z,5.77
2019-02-17T08:22:04.661Z,5.27
2019-02-17T08:24:31.403Z,5.60
2019-02-17T08:26:58.173Z,5.30
2019-02-17T08:29:24.933Z,4.80
2019-02-17T08:31:55.951Z,6.70
2019-02-17T08:34:20.539Z,6.47
2019-02-17T08:36:48.672Z,5.67
2019-02-17T08:39:15.440Z,6.30
2019-02-17T08:41:42.165Z,6.33
2019-02-17T08:44:08.915Z,6.13
2019-02-17T08:46:36.079Z,6.27
2019-02-17T08:49:03.006Z,6.50
2019-02-17T08:51:29.764Z,5.87
2019-02-17T08:53:56.905Z,6.33
2019-02-17T08:56:23.925Z,7.07
2019-02-17T08:58:51.102Z,7.00
2019-02-17T09:01:17.845Z,6.80
2019-02-17T09:03:44.855Z,6.60
2019-02-17T09:06:13.995Z,7.57
2019-02-17T09:08:40.754Z,7.30
2019-02-17T09:11:07.486Z,7.13
2019-02-17T09:13:36.129Z,8.17
2019-02-17T09:16:02.879Z,7.00
2019-02-17T09:18:29.662Z,6.37
2019-02-17T09:20:56.447Z,6.40
2019-02-17T09:23:23.193Z,7.23
2019-02-17T09:25:49.974Z,8.90
2019-02-17T09:28:18.023Z,10.70
2019-02-17T09:30:44.755Z,8.50
2019-02-17T09:33:11.548Z,8.27
2019-02-17T09:35:38.304Z,7.80
2019-02-17T09:38:05.107Z,8.27
2019-02-17T09:40:35.577Z,8.20
2019-02-17T09:43:06.767Z,8.10
2019-02-17T09:45:33.635Z,7.87
2019-02-17T09:48:01.596Z,7.97
2019-02-17T09:50:28.496Z,8.33
2019-02-17T09:52:55.242Z,8.37
2019-02-17T09:55:22.013Z,8.87
2019-02-17T09:57:48.778Z,8.47
2019-02-17T10:00:15.558Z,8.30
2019-02-17T10:02:42.415Z,10.33
2019-02-17T10:05:14.429Z,8.50
2019-02-17T10:07:43.882Z,9.60
2019-02-17T10:10:12.042Z,9.00
2019-02-17T10:12:38.868Z,9.87
2019-02-17T10:15:07.089Z,10.40
2019-02-17T10:17:34.025Z,10.07
2019-02-17T10:20:00.797Z,8.60
2019-02-17T10:22:28.402Z,7.40
2019-02-17T10:24:57.703Z,8.50
2019-02-17T10:27:24.460Z,6.10
2019-02-17T10:29:51.221Z,6.80
2019-02-17T10:32:20.815Z,6.40
2019-02-17T10:34:47.578Z,5.57
2019-02-17T10:37:14.344Z,4.67
2019-02-17T10:39:41.200Z,4.73
2019-02-17T10:42:07.977Z,4.80
2019-02-17T10:44:35.139Z,4.60
2019-02-17T10:47:01.906Z,3.90
2019-02-17T10:49:31.733Z,2.80
2019-02-17T10:51:58.591Z,2.93
2019-02-17T10:54:25.329Z,3.17
2019-02-17T10:56:52.082Z,2.87
2019-02-17T10:59:18.816Z,3.10
2019-02-17T11:01:45.562Z,3.17
2019-02-17T11:04:12.504Z,3.27
2019-02-17T11:06:39.276Z,3.40
2019-02-17T11:09:21.889Z,3.57
2019-02-17T11:11:49.322Z,3.03
2019-02-17T11:14:17.067Z,2.30
2019-02-17T11:16:44.627Z,3.00
2019-02-17T11:19:12.941Z,2.90
2019-02-17T11:21:44.553Z,2.80
2019-02-17T11:24:11.333Z,3.30
2019-02-17T11:26:38.224Z,2.90
2019-02-17T11:29:05.762Z,3.20
2019-02-17T11:31:37.808Z,3.00
2019-02-17T11:34:04.584Z,2.70
2019-02-17T11:36:31.337Z,3.33
2019-02-17T11:39:01.883Z,3.10
2019-02-17T11:41:31.930Z,3.33
2019-02-17T11:44:00.428Z,2.93
2019-02-17T11:46:27.374Z,3.10
2019-02-17T11:48:54.392Z,3.40
2019-02-17T11:51:21.155Z,3.13
2019-02-17T11:53:47.874Z,3.10
2019-02-17T11:56:16.965Z,3.17
2019-02-17T11:58:56.333Z,3.60
2019-02-17T12:01:23.207Z,3.00
2019-02-17T12:03:52.197Z,2.77
2019-02-17T12:06:18.960Z,2.70
2019-02-17T12:08:46.826Z,2.60
2019-02-17T12:11:14.213Z,2.43
2019-02-17T12:13:41.291Z,2.80
2019-02-17T12:16:08.270Z,2.80
2019-02-17T12:18:35.048Z,2.30
2019-02-17T12:21:21.439Z,2.80
2019-02-17T12:24:06.348Z,2.27
2019-02-17T12:26:45.183Z,4.03
2019-02-17T12:29:19.660Z,2.60
2019-02-17T12:31:47.124Z,3.30
2019-02-17T12:34:14.468Z,2.70
2019-02-17T12:36:44.167Z,3.30
2019-02-17T12:39:11.276Z,3.33
2019-02-17T12:41:38.071Z,2.70
2019-02-17T12:44:04.856Z,2.40
2019-02-17T12:46:31.612Z,2.53
2019-02-17T12:48:58.352Z,2.40
2019-02-17T12:51:25.082Z,2.23
2019-02-17T12:53:51.864Z,2.23
2019-02-17T12:56:18.737Z,2.20
2019-02-17T12:58:45.853Z,2.17
2019-02-17T13:01:13.583Z,2.43
2019-02-17T13:03:40.552Z,2.30
2019-02-17T13:06:07.370Z,2.00
2019-02-17T13:08:34.360Z,2.10
2019-02-17T13:11:01.453Z,1.90
2019-02-17T13:13:28.394Z,1.80
2019-02-17T13:15:55.297Z,1.93
2019-02-17T13:18:22.165Z,1.93
2019-02-17T13:20:48.908Z,1.87
2019-02-17T13:23:15.773Z,1.77
2019-02-17T13:25:42.653Z,2.23
2019-02-17T13:28:09.673Z,2.27
2019-02-17T13:30:36.434Z,2.37
2019-02-17T13:33:03.272Z,1.80
2019-02-17T13:35:30.455Z,1.90
2019-02-17T13:37:57.474Z,2.17
2019-02-17T13:40:27.297Z,2.00
2019-02-17T13:42:54.043Z,2.07
2019-02-17T13:45:20.941Z,2.10
2019-02-17T13:47:47.674Z,1.97
2019-02-17T13:50:14.455Z,2.10
2019-02-17T13:52:41.214Z,1.90
2019-02-17T13:55:10.747Z,2.17
2019-02-17T13:57:37.468Z,2.20
2019-02-17T14:00:07.433Z,2.27
2019-02-17T14:02:34.228Z,2.00
2019-02-17T14:05:00.986Z,2.00
2019-02-17T14:07:27.713Z,2.00
2019-02-17T14:09:54.755Z,1.73
2019-02-17T14:12:21.493Z,2.30
2019-02-17T14:14:48.314Z,2.67
2019-02-17T14:17:15.102Z,2.70
2019-02-17T14:19:41.935Z,2.30
2019-02-17T14:22:08.683Z,2.30
2019-02-17T14:24:35.425Z,2.03
2019-02-17T14:27:03.662Z,2.43
2019-02-17T14:29:30.520Z,2.13
2019-02-17T14:31:57.369Z,2.67
2019-02-17T14:34:24.366Z,2.57
2019-02-17T14:36:51.228Z,2.50
2019-02-17T14:39:17.995Z,3.00
2019-02-17T14:41:50.281Z,2.23
2019-02-17T14:44:17.394Z,2.37
2019-02-17T14:46:44.285Z,2.10
2019-02-17T14:49:11.923Z,2.83
2019-02-17T14:51:40.957Z,2.20
2019-02-17T14:54:10.117Z,2.40
2019-02-17T14:56:38.937Z,2.40
2019-02-17T14:59:05.585Z,2.70
2019-02-17T15:01:32.500Z,2.00
2019-02-17T15:04:08.097Z,2.40
2019-02-17T15:06:28.121Z,2.33
2019-02-17T15:08:57.305Z,2.77
2019-02-17T15:11:24.532Z,1.97
2019-02-17T15:13:53.529Z,2.03
2019-02-17T15:16:20.373Z,2.10
2019-02-17T15:18:47.527Z,2.60
2019-02-17T15:21:14.430Z,2.33
2019-02-17T15:23:44.333Z,2.20
2019-02-17T15:26:13.453Z,1.87
2019-02-17T15:28:40.217Z,2.30
2019-02-17T15:31:08.779Z,1.80
2019-02-17T15:33:35.947Z,2.10
2019-02-17T15:36:02.850Z,1.60
2019-02-17T15:38:29.634Z,2.10
2019-02-17T15:40:56.633Z,2.20
2019-02-17T15:43:23.863Z,2.00
2019-02-17T15:45:51.973Z,2.13
2019-02-17T15:48:18.840Z,2.00
2019-02-17T15:50:46.815Z,2.00
2019-02-17T15:53:13.934Z,2.20
2019-02-17T15:55:40.764Z,2.13
2019-02-17T15:58:07.502Z,2.20
2019-02-17T16:00:34.303Z,2.23
2019-02-17T16:03:01.030Z,2.17
2019-02-17T16:05:29.068Z,2.10
2019-02-17T16:07:56.228Z,2.60
2019-02-17T16:10:26.903Z,2.63
2019-02-17T16:12:58.612Z,2.10
2019-02-17T16:15:25.386Z,2.40
2019-02-17T16:17:52.336Z,2.37
2019-02-17T16:20:19.611Z,2.70
2019-02-17T16:22:52.596Z,2.43
2019-02-17T16:25:22.915Z,2.30
2019-02-17T16:27:50.025Z,2.33
2019-02-17T16:30:16.961Z,2.30
2019-02-17T16:32:44.944Z,2.00
2019-02-17T16:35:11.674Z,2.40
2019-02-17T16:37:38.447Z,3.00
2019-02-17T16:40:07.267Z,3.50
2019-02-17T16:42:34.134Z,3.50
2019-02-17T16:45:01.080Z,3.10
2019-02-17T16:47:28.508Z,2.80
2019-02-17T16:49:55.965Z,2.70
2019-02-17T16:52:22.665Z,2.27
2019-02-17T16:54:49.392Z,2.70
2019-02-17T16:57:16.143Z,2.67
2019-02-17T16:59:42.868Z,3.60
2019-02-17T17:02:09.585Z,3.33
2019-02-17T17:04:36.275Z,3.60
2019-02-17T17:07:04.008Z,3.70
2019-02-17T17:09:31.061Z,5.80
2019-02-17T17:11:59.490Z,4.70
2019-02-17T17:14:27.174Z,5.13
2019-02-17T17:16:54.203Z,4.17
2019-02-17T17:19:24.080Z,4.20
2019-02-17T17:21:50.794Z,4.33
2019-02-17T17:24:17.551Z,4.10
2019-02-17T17:26:46.624Z,3.50
2019-02-17T17:29:13.834Z,4.10
2019-02-17T17:31:40.550Z,4.33
2019-02-17T17:34:07.261Z,4.37
2019-02-17T17:36:34.366Z,4.80
2019-02-17T17:39:01.879Z,4.30
2019-02-17T17:41:28.611Z,3.23
2019-02-17T17:43:55.355Z,3.90
2019-02-17T17:46:22.182Z,3.53
2019-02-17T17:48:49.236Z,3.60
2019-02-17T17:51:16.082Z,3.30
2019-02-17T17:53:42.853Z,3.37
2019-02-17T17:56:09.556Z,3.03
2019-02-17T17:58:36.726Z,3.23
2019-02-17T18:01:25.838Z,3.87
2019-02-17T18:03:38.910Z,4.00
2019-02-17T18:06:05.646Z,3.70
2019-02-17T18:08:32.459Z,2.77
2019-02-17T18:10:59.255Z,2.77
2019-02-17T18:13:28.509Z,2.70
2019-02-17T18:15:55.254Z,3.30
2019-02-17T18:18:21.998Z,3.20
2019-02-17T18:20:51.241Z,3.53
2019-02-17T18:23:18.110Z,2.70
2019-02-17T18:25:44.853Z,3.60
2019-02-17T18:28:11.709Z,3.70
2019-02-17T18:30:39.204Z,3.20
2019-02-17T18:33:05.920Z,3.30
2019-02-17T18:35:32.658Z,3.57
2019-02-17T18:37:59.423Z,3.67
2019-02-17T18:40:26.978Z,2.97
2019-02-17T18:42:53.772Z,3.00
2019-02-17T18:45:20.953Z,2.67
2019-02-17T18:47:47.725Z,2.90
2019-02-17T18:50:14.487Z,3.17
2019-02-17T18:52:41.401Z,3.30
2019-02-17T18:55:09.267Z,3.30
2019-02-17T18:57:36.114Z,3.27
2019-02-17T19:00:03.894Z,3.60
2019-02-17T19:02:30.652Z,3.30
2019-02-17T19:04:57.648Z,3.20
2019-02-17T19:07:24.463Z,3.67
2019-02-17T19:09:54.496Z,3.63
2019-02-17T19:12:21.904Z,3.37
2019-02-17T19:14:55.158Z,2.80
2019-02-17T19:17:22.414Z,2.60
2019-02-17T19:19:49.553Z,3.10
2019-02-17T19:22:16.326Z,2.50
2019-02-17T19:24:43.336Z,2.60
2019-02-17T19:27:12.259Z,3.13
2019-02-17T19:29:39.380Z,3.00
2019-02-17T19:32:07.480Z,2.90
2019-02-17T19:34:36.770Z,2.80
2019-02-17T19:37:04.785Z,3.27
2019-02-17T19:39:31.762Z,2.57
2019-02-17T19:41:58.814Z,3.27
2019-02-17T19:44:25.848Z,3.20
2019-02-17T19:46:52.636Z,4.93
2019-02-17T19:49:19.654Z,3.80
2019-02-17T23:24:21.887Z,4.20
2019-02-17T23:26:48.750Z,4.97
2019-02-17T23:29:15.486Z,4.60
2019-02-17T23:31:42.305Z,4.00
2019-02-17T23:34:09.015Z,4.27
2019-02-17T23:36:35.742Z,4.10
2019-02-17T23:39:03.874Z,4.47
2019-02-17T23:41:30.642Z,4.00
2019-02-17T23:43:57.411Z,4.33
2019-02-17T23:46:24.143Z,4.57
2019-02-17T23:48:50.918Z,5.20
2019-02-17T23:51:17.642Z,4.43
2019-02-17T23:53:44.587Z,4.97
2019-02-17T23:56:11.678Z,4.33
2019-02-17T23:58:38.425Z,4.83
